Time;durP1;ratioP1;P1;durP2;ratioP2;P2;SDS_P1;SDS_P2;PMS_P1;PMS_P2;Temp;Humidity;BMP_temperature;BMP_pressure;BME280_temperature;BME280_humidity;BME280_pressure;Samples;Min_cycle;Max_cycle;Signal;HPM_P1;HPM_P2
2021/11/15 00:01:06;;;;;;;34.28;15.40;;;;;;;5.95;81.22;96736.75;5069740;28;20506;-74
2021/11/15 00:03:34;;;;;;;32.60;15.65;;;;;;;6.00;80.83;96734.00;5069357;28;20495;-75
2021/11/15 00:06:00;;;;;;;35.17;15.85;;;;;;;6.01;81.26;96741.03;5069520;28;20056;-75
2021/11/15 00:08:27;;;;;;;31.20;14.68;;;;;;;6.01;81.26;96741.03;5061281;28;20044;-75
2021/11/15 00:10:54;;;;;;;30.35;15.32;;;;;;;6.00;81.08;96744.81;5082141;28;20055;-75
2021/11/15 00:13:20;;;;;;;33.92;16.17;;;;;;;6.03;81.19;96742.63;5089246;28;20052;-75
2021/11/15 00:15:47;;;;;;;34.67;15.48;;;;;;;5.99;81.10;96735.06;5089051;28;20054;-75
2021/11/15 00:18:13;;;;;;;27.73;15.40;;;;;;;6.00;81.03;96739.41;5089478;28;20048;-75
2021/11/15 00:20:41;;;;;;;29.90;15.98;;;;;;;6.01;81.19;96735.63;5088695;28;20048;-75
2021/11/15 00:23:08;;;;;;;30.80;15.15;;;;;;;5.98;81.03;96730.75;5088703;28;20062;-75
2021/11/15 00:25:36;;;;;;;32.53;14.35;;;;;;;5.99;80.94;96731.56;5088851;28;20051;-75
2021/11/15 00:28:02;;;;;;;30.83;15.38;;;;;;;6.00;81.38;96734.00;5089167;28;20052;-73
2021/11/15 00:30:29;;;;;;;37.00;17.58;;;;;;;6.00;81.19;96727.75;5089449;28;20513;-75
2021/11/15 00:32:55;;;;;;;33.33;15.95;;;;;;;6.00;80.89;96728.59;5088967;28;20479;-75
2021/11/15 00:35:22;;;;;;;31.40;15.70;;;;;;;5.99;81.00;96737.78;5088931;28;20055;-75
2021/11/15 00:37:50;;;;;;;32.03;15.23;;;;;;;5.97;81.06;96739.16;5088877;28;20059;-75
2021/11/15 00:40:18;;;;;;;31.90;16.70;;;;;;;5.94;81.46;96731.59;5089336;28;20055;-75
2021/11/15 00:42:45;;;;;;;32.50;15.48;;;;;;;5.91;81.67;96730.25;5088590;28;20040;-75
2021/11/15 00:45:13;;;;;;;38.30;16.92;;;;;;;5.89;81.49;96732.38;5088846;28;20048;-75
2021/11/15 00:47:40;;;;;;;31.23;15.38;;;;;;;5.88;81.89;96741.59;5088436;28;20036;-75
2021/11/15 00:50:09;;;;;;;31.52;14.80;;;;;;;5.83;81.91;96730.81;5088545;28;20052;-75
2021/11/15 00:52:37;;;;;;;32.78;15.38;;;;;;;5.80;82.01;96744.91;5088873;28;20052;-75
2021/11/15 00:55:05;;;;;;;35.55;16.48;;;;;;;5.81;82.06;96743.81;5088433;28;20052;-75
2021/11/15 00:57:32;;;;;;;34.78;16.60;;;;;;;5.82;82.46;96742.72;5088733;28;20047;-75
2021/11/15 00:59:58;;;;;;;34.90;16.77;;;;;;;5.83;82.49;96746.22;5087977;28;20051;-75
2021/11/15 01:02:27;;;;;;;34.50;16.10;;;;;;;5.78;82.27;96740.84;5088322;28;20518;-75
2021/11/15 01:04:54;;;;;;;35.83;16.75;;;;;;;5.77;82.54;96740.03;5087933;28;20130;-75
2021/11/15 01:07:20;;;;;;;34.53;16.33;;;;;;;5.80;82.61;96741.38;5088581;28;20055;-75
2021/11/15 01:09:47;;;;;;;34.60;15.70;;;;;;;5.75;82.45;96747.63;5087919;28;20051;-75
2021/11/15 01:12:15;;;;;;;34.03;16.17;;;;;;;5.80;82.77;96741.38;5088225;28;20423;-75
2021/11/15 01:14:41;;;;;;;35.45;15.95;;;;;;;5.78;82.50;96747.03;5088233;28;20048;-75
2021/11/15 01:17:08;;;;;;;35.10;16.48;;;;;;;5.78;82.43;96740.84;5087898;28;20044;-74
2021/11/15 01:19:34;;;;;;;32.38;15.75;;;;;;;5.76;82.40;96738.41;5088367;28;20036;-75
2021/11/15 01:22:01;;;;;;;35.15;17.00;;;;;;;5.78;82.48;96746.25;5087605;28;20063;-75
2021/11/15 01:24:27;;;;;;;37.10;17.13;;;;;;;5.80;82.75;96741.38;5088187;28;20048;-74
2021/11/15 01:26:54;;;;;;;37.88;17.13;;;;;;;5.78;82.40;96740.84;5089095;28;20074;-73
2021/11/15 01:29:22;;;;;;;32.95;16.27;;;;;;;5.78;82.69;96730.84;5087953;28;20056;-76
2021/11/15 01:31:49;;;;;;;37.40;17.48;;;;;;;5.80;82.79;96741.38;5087384;28;20044;-75
2021/11/15 01:34:15;;;;;;;32.88;15.85;;;;;;;5.80;82.72;96742.19;5088033;28;20051;-75
2021/11/15 01:36:42;;;;;;;33.90;16.60;;;;;;;5.79;82.83;96748.66;5087862;28;20048;-75
2021/11/15 01:39:09;;;;;;;36.63;16.17;;;;;;;5.80;82.89;96744.91;5087779;28;20044;-75
2021/11/15 01:41:35;;;;;;;32.47;16.02;;;;;;;5.81;83.02;96745.69;5088435;28;20052;-75
2021/11/15 01:44:02;;;;;;;37.47;16.08;;;;;;;5.81;82.91;96735.69;5087387;28;20126;-74
2021/11/15 01:46:30;;;;;;;35.00;15.57;;;;;;;5.79;82.86;96743.25;5087724;28;20048;-75
2021/11/15 01:48:56;;;;;;;35.35;16.02;;;;;;;5.77;83.04;96731.94;5087600;28;20613;-75
2021/11/15 01:51:23;;;;;;;40.65;17.73;;;;;;;5.79;82.59;96731.63;5087424;28;20044;-75
2021/11/15 01:53:49;;;;;;;31.80;15.90;;;;;;;5.79;83.33;96732.44;5087343;28;20048;-76
2021/11/15 01:56:16;;;;;;;34.17;16.50;;;;;;;5.77;82.87;96729.22;5087908;28;20044;-75
2021/11/15 01:58:43;;;;;;;39.63;16.85;;;;;;;5.74;82.69;96729.75;5086946;28;20071;-75
2021/11/15 02:01:11;;;;;;;34.83;16.80;;;;;;;5.72;82.80;96724.66;5087140;28;20058;-75
2021/11/15 02:03:39;;;;;;;36.35;16.60;;;;;;;5.76;83.47;96733.00;5087280;28;20044;-75
2021/11/15 02:06:06;;;;;;;39.35;16.80;;;;;;;5.79;83.44;96731.63;5087350;28;20055;-75
2021/11/15 02:08:33;;;;;;;38.85;16.73;;;;;;;5.79;83.27;96721.63;5087454;28;20055;-72
2021/11/15 02:11:00;;;;;;;34.90;16.77;;;;;;;5.79;83.39;96721.63;5087310;28;20048;-75
2021/11/15 02:13:27;;;;;;;39.67;16.77;;;;;;;5.76;83.23;96727.59;5087517;28;20040;-72
2021/11/15 02:15:54;;;;;;;41.13;18.88;;;;;;;5.81;82.91;96721.38;5086945;28;20052;-74
2021/11/15 02:18:21;;;;;;;36.75;16.13;;;;;;;5.83;83.26;96728.09;5087538;28;20052;-75
2021/11/15 02:20:52;;;;;;;35.22;17.98;;;;;;;5.82;82.89;96726.50;5086671;28;20530;-75
2021/11/15 02:23:20;;;;;;;42.47;18.08;;;;;;;5.78;83.05;96735.44;5087149;28;20052;-75
2021/11/15 02:25:48;;;;;;;37.25;18.30;;;;;;;5.79;83.38;96718.94;5087123;28;20498;-75
2021/11/15 02:28:15;;;;;;;38.13;17.55;;;;;;;5.74;83.09;96724.34;5086798;28;20532;-75
2021/11/15 02:30:41;;;;;;;38.65;17.45;;;;;;;5.73;82.98;96718.16;5086912;28;20043;-75
2021/11/15 02:33:09;;;;;;;34.65;17.23;;;;;;;5.69;83.07;96718.97;5086927;28;20514;-75
2021/11/15 02:35:36;;;;;;;33.67;16.92;;;;;;;5.69;83.37;96710.88;5087693;28;20068;-75
2021/11/15 02:38:04;;;;;;;39.75;18.00;;;;;;;5.71;83.28;96714.13;5086370;28;20479;-74
2021/11/15 02:40:31;;;;;;;40.05;18.30;;;;;;;5.73;83.34;96706.53;5088133;28;20083;-75
2021/11/15 02:43:00;;;;;;;36.60;17.92;;;;;;;5.74;83.48;96706.28;5086416;28;20056;-75
2021/11/15 02:45:27;;;;;;;37.78;17.70;;;;;;;5.72;83.35;96699.53;5088575;28;20047;-75
2021/11/15 02:47:54;;;;;;;42.53;18.58;;;;;;;5.71;83.51;96708.72;5090927;28;20640;-74
2021/11/15 02:50:24;;;;;;;41.60;18.60;;;;;;;5.73;83.56;96711.94;5090668;28;20052;-75
2021/11/15 02:52:53;;;;;;;40.47;18.50;;;;;;;5.76;83.32;96700.59;5090772;28;20036;-74
2021/11/15 02:55:21;;;;;;;44.30;18.55;;;;;;;5.78;83.16;96703.81;5089946;28;20052;-75
2021/11/15 02:57:48;;;;;;;40.70;17.42;;;;;;;5.78;83.36;96703.81;5091370;28;20046;-75
2021/11/15 03:00:25;;;;;;;38.10;18.02;;;;;;;5.79;83.47;96700.00;5089822;28;20531;-76
2021/11/15 03:02:52;;;;;;;45.20;19.15;;;;;;;5.83;83.74;96701.06;5091610;28;20066;-75
2021/11/15 03:05:22;;;;;;;42.33;17.70;;;;;;;5.80;83.49;96698.94;5090127;28;20052;-74
2021/11/15 03:07:49;;;;;;;39.55;17.52;;;;;;;5.82;83.31;96699.47;5091278;28;20050;-75
2021/11/15 03:10:15;;;;;;;36.05;18.50;;;;;;;5.75;82.91;96701.69;5090030;28;20055;-74
2021/11/15 03:12:43;;;;;;;40.78;18.35;;;;;;;5.70;83.12;96702.50;5090728;28;20724;-73
2021/11/15 03:15:20;;;;;;;41.85;18.35;;;;;;;5.64;83.06;96698.22;5090622;28;20532;-73
2021/11/15 03:17:52;;;;;;;41.10;17.85;;;;;;;5.60;83.25;96707.16;5090529;28;20047;-73
2021/11/15 03:20:18;;;;;;;39.38;17.48;;;;;;;5.60;83.68;96707.16;5090466;28;20054;-73
2021/11/15 03:22:45;;;;;;;44.67;18.90;;;;;;;5.57;83.72;96702.28;5089742;28;20079;-75
2021/11/15 03:25:11;;;;;;;37.20;17.35;;;;;;;5.55;83.96;96699.06;5090548;28;20052;-73
2021/11/15 03:27:38;;;;;;;37.45;18.95;;;;;;;5.58;84.19;96703.91;5090253;28;20048;-73
2021/11/15 03:30:07;;;;;;;47.00;18.80;;;;;;;5.60;83.93;96713.38;5090391;28;20059;-76
2021/11/15 03:32:34;;;;;;;45.20;18.90;;;;;;;5.60;84.07;96701.75;5089704;28;20051;-73
2021/11/15 03:35:03;;;;;;;45.10;19.00;;;;;;;5.54;84.32;96711.78;5090455;28;20536;-73
2021/11/15 03:37:29;;;;;;;40.42;18.45;;;;;;;5.57;84.39;96699.59;5089621;28;20044;-73
2021/11/15 03:39:56;;;;;;;42.65;18.08;;;;;;;5.55;84.20;96693.66;5084573;28;20047;-72
2021/11/15 03:42:24;;;;;;;46.72;18.10;;;;;;;5.58;84.40;96693.09;5089887;28;20050;-75
2021/11/15 03:44:51;;;;;;;45.50;19.92;;;;;;;5.59;84.08;96694.75;5083376;28;20326;-73
2021/11/15 03:47:20;;;;;;;46.10;19.58;;;;;;;5.61;84.34;96695.25;5090279;28;20052;-75
2021/11/15 03:49:47;;;;;;;45.33;19.42;;;;;;;5.57;84.16;96697.69;5089487;28;20547;-73
2021/11/15 03:52:14;;;;;;;40.72;17.90;;;;;;;5.56;84.19;96693.38;5089663;28;20044;-75
2021/11/15 03:54:40;;;;;;;40.95;18.30;;;;;;;5.52;83.97;96699.63;5089809;28;20458;-74
2021/11/15 03:57:07;;;;;;;42.80;18.38;;;;;;;5.46;84.19;96696.94;5088521;28;20051;-72
2021/11/15 03:59:34;;;;;;;42.25;18.55;;;;;;;5.46;84.38;96702.34;5089570;28;20048;-73
2021/11/15 04:02:00;;;;;;;42.72;19.00;;;;;;;5.45;83.99;96695.31;5089541;28;20048;-75
2021/11/15 04:04:38;;;;;;;41.50;18.63;;;;;;;5.46;84.38;96688.84;5089752;28;20052;-72
2021/11/15 04:07:07;;;;;;;45.25;17.95;;;;;;;5.50;84.31;96689.91;5089072;28;20086;-73
2021/11/15 04:09:33;;;;;;;42.85;18.25;;;;;;;5.50;84.23;96689.09;5090147;28;20047;-72
2021/11/15 04:12:00;;;;;;;41.80;19.25;;;;;;;5.49;84.28;96695.59;5089023;28;20051;-73
2021/11/15 04:14:26;;;;;;;37.95;18.13;;;;;;;5.48;84.30;96693.94;5089242;28;20823;-72
2021/11/15 04:16:53;;;;;;;40.65;17.73;;;;;;;5.45;84.24;96689.91;5088983;28;20059;-75
2021/11/15 04:19:20;;;;;;;41.47;18.92;;;;;;;5.44;84.53;96693.72;5089442;28;20704;-75
2021/11/15 04:21:50;;;;;;;46.28;20.30;;;;;;;5.44;84.40;96688.31;5089067;28;20043;-75
2021/11/15 04:24:17;;;;;;;45.67;19.42;;;;;;;5.48;84.69;96686.69;5088911;28;20674;-75
2021/11/15 04:26:43;;;;;;;44.88;20.33;;;;;;;5.53;84.46;96685.03;5089800;28;20044;-73
2021/11/15 04:29:10;;;;;;;49.50;20.48;;;;;;;5.53;83.99;96685.81;5088240;28;20048;-75
2021/11/15 04:31:36;;;;;;;44.13;19.50;;;;;;;5.52;84.14;96683.41;5089373;28;20051;-75
2021/11/15 04:34:03;;;;;;;46.78;19.95;;;;;;;5.49;84.66;96685.59;5088452;28;20048;-72
2021/11/15 04:36:29;;;;;;;44.00;19.85;;;;;;;5.53;84.89;96685.03;5090069;28;20054;-75
2021/11/15 04:38:57;;;;;;;46.03;19.90;;;;;;;5.50;84.50;96687.19;5089699;28;20574;-75
2021/11/15 04:41:24;;;;;;;43.97;19.95;;;;;;;5.50;84.50;96687.19;5088321;28;20119;-73
2021/11/15 04:43:51;;;;;;;44.38;19.00;;;;;;;5.49;84.52;96680.19;5088782;28;20048;-72
2021/11/15 04:46:17;;;;;;;44.22;19.70;;;;;;;5.49;84.43;96685.59;5064564;28;20047;-72
2021/11/15 04:48:44;;;;;;;40.05;19.88;;;;;;;5.50;84.06;96678.28;5069054;28;20052;-75
2021/11/15 04:51:11;;;;;;;39.33;18.20;;;;;;;5.45;84.22;96673.72;5067691;28;20048;-75
2021/11/15 04:53:37;;;;;;;36.92;16.80;;;;;;;5.45;84.36;96675.63;5068303;28;20048;-74
2021/11/15 04:56:07;;;;;;;40.90;17.52;;;;;;;5.37;83.76;96676.97;5066990;28;20045;-74
2021/11/15 04:58:33;;;;;;;35.17;16.20;;;;;;;5.39;84.20;96669.44;5067922;28;20462;-75
2021/11/15 05:01:00;;;;;;;41.08;17.83;;;;;;;5.39;84.20;96668.63;5067780;28;20055;-74
2021/11/15 05:03:27;;;;;;;40.60;18.73;;;;;;;5.37;84.46;96674.28;5067973;28;20523;-74
2021/11/15 05:05:53;;;;;;;40.55;18.80;;;;;;;5.41;84.03;96672.66;5068139;28;20052;-74
2021/11/15 05:08:20;;;;;;;38.80;17.55;;;;;;;5.44;83.92;96666.72;5067749;28;20058;-75
2021/11/15 05:10:47;;;;;;;42.17;18.55;;;;;;;5.43;84.25;96673.19;5067737;28;20507;-74
2021/11/15 05:13:15;;;;;;;43.65;18.92;;;;;;;5.47;84.42;96676.94;5067389;28;20044;-72
2021/11/15 05:15:42;;;;;;;41.08;18.88;;;;;;;5.49;84.23;96680.19;5082744;28;20047;-75
2021/11/15 05:18:09;;;;;;;42.30;19.52;;;;;;;5.50;83.95;96679.09;5087222;28;20044;-74
2021/11/15 05:20:36;;;;;;;39.85;19.92;;;;;;;5.46;84.08;96680.72;5088763;28;20070;-74
2021/11/15 05:23:02;;;;;;;40.80;18.33;;;;;;;5.49;83.99;96688.28;5087327;28;20056;-73
2021/11/15 05:25:29;;;;;;;36.50;18.50;;;;;;;5.57;84.24;96688.78;5088703;28;20047;-73
2021/11/15 05:27:57;;;;;;;39.30;19.15;;;;;;;5.54;83.66;96686.66;5087705;28;20051;-73
2021/11/15 05:30:25;;;;;;;42.45;19.23;;;;;;;5.50;83.65;96692.59;5087699;28;20137;-73
2021/11/15 05:32:55;;;;;;;37.38;17.83;;;;;;;5.50;83.58;96681.78;5087829;28;20056;-73
2021/11/15 05:35:22;;;;;;;40.42;19.27;;;;;;;5.49;83.84;96679.38;5087443;28;21056;-73
2021/11/15 05:37:49;;;;;;;40.00;19.15;;;;;;;5.46;83.57;96686.13;5088263;28;20135;-72
2021/11/15 05:40:16;;;;;;;38.35;18.58;;;;;;;5.46;83.57;96680.72;5086753;28;20713;-74
2021/11/15 05:42:43;;;;;;;41.92;19.15;;;;;;;5.48;83.45;96693.94;5088223;28;20495;-73
2021/11/15 05:45:11;;;;;;;34.83;19.23;;;;;;;5.45;83.63;96695.31;5086424;28;20052;-73
2021/11/15 05:47:40;;;;;;;39.15;18.88;;;;;;;5.45;83.72;96700.72;5088211;28;20101;-73
2021/11/15 05:50:09;;;;;;;37.85;18.55;;;;;;;5.43;83.32;96702.09;5086730;28;20082;-72
2021/11/15 05:52:39;;;;;;;36.95;18.27;;;;;;;5.45;83.65;96706.13;5087520;28;20052;-73
2021/11/15 05:55:08;;;;;;;45.25;20.30;;;;;;;5.48;83.67;96700.19;5087374;28;20677;-72
2021/11/15 05:57:34;;;;;;;36.75;18.92;;;;;;;5.48;83.51;96705.59;5087541;28;20396;-77
2021/11/15 06:00:01;;;;;;;39.42;19.77;;;;;;;5.52;83.42;96713.94;5087714;28;20051;-75
2021/11/15 06:02:28;;;;;;;38.83;18.98;;;;;;;5.55;83.38;96715.28;5086547;28;20043;-74
2021/11/15 06:04:55;;;;;;;39.03;18.27;;;;;;;5.55;83.44;96704.47;5088061;28;20667;-74
2021/11/15 06:07:22;;;;;;;37.47;18.98;;;;;;;5.57;83.40;96715.81;5086710;28;20052;-74
2021/11/15 06:09:49;;;;;;;41.28;18.63;;;;;;;5.57;83.24;96718.50;5088426;28;20067;-74
2021/11/15 06:12:15;;;;;;;39.28;19.85;;;;;;;5.60;83.12;96712.56;5086366;28;20056;-74
2021/11/15 06:14:42;;;;;;;38.75;18.65;;;;;;;5.60;83.04;96707.16;5087398;28;20767;-74
2021/11/15 06:17:08;;;;;;;41.00;19.27;;;;;;;5.61;83.15;96708.75;5086912;28;20059;-74
2021/11/15 06:19:35;;;;;;;37.08;19.58;;;;;;;5.56;82.63;96711.50;5085920;28;20166;-74
2021/11/15 06:22:03;;;;;;;38.83;19.23;;;;;;;5.50;82.86;96719.63;5085213;28;20051;-74
2021/11/15 06:24:29;;;;;;;41.75;20.40;;;;;;;5.51;82.99;96715.03;5086610;28;20055;-74
2021/11/15 06:26:56;;;;;;;44.50;20.55;;;;;;;5.53;83.06;96717.44;5087580;28;20127;-72
2021/11/15 06:29:22;;;;;;;39.22;20.13;;;;;;;5.50;83.06;96718.81;5085019;28;20044;-73
2021/11/15 06:31:49;;;;;;;47.30;20.90;;;;;;;5.54;83.55;96716.38;5085299;28;20047;-72
2021/11/15 06:34:16;;;;;;;44.42;21.52;;;;;;;5.53;83.28;96722.84;5085321;28;20354;-72
2021/11/15 06:36:42;;;;;;;45.05;20.83;;;;;;;5.57;83.32;96723.91;5087840;28;20044;-72
2021/11/15 06:39:10;;;;;;;42.00;20.33;;;;;;;5.60;83.35;96723.38;5086439;28;20048;-72
2021/11/15 06:41:37;;;;;;;49.08;22.35;;;;;;;5.62;83.42;96732.00;5087051;28;20060;-71
2021/11/15 06:44:07;;;;;;;41.92;20.90;;;;;;;5.59;83.04;96733.38;5086766;28;20048;-71
2021/11/15 06:46:34;;;;;;;44.88;20.58;;;;;;;5.58;82.97;96737.13;5086908;28;20048;-72
2021/11/15 06:49:00;;;;;;;46.83;22.40;;;;;;;5.59;83.19;96732.56;5087477;28;20051;-72
2021/11/15 06:51:28;;;;;;;47.22;23.15;;;;;;;5.61;83.29;96738.47;5085989;28;20044;-72
2021/11/15 06:53:55;;;;;;;44.15;21.48;;;;;;;5.62;83.30;96726.59;5087836;28;20411;-72
2021/11/15 06:56:23;;;;;;;45.90;21.25;;;;;;;5.64;83.21;96730.66;5086382;28;20051;-72
2021/11/15 06:58:49;;;;;;;46.13;21.65;;;;;;;5.68;82.79;96720.06;5087424;28;20044;-71
2021/11/15 07:01:16;;;;;;;41.15;21.13;;;;;;;5.68;83.21;96722.78;5085954;28;20048;-72
2021/11/15 07:03:43;;;;;;;41.70;20.58;;;;;;;5.61;82.67;96720.38;5087098;28;20508;-72
2021/11/15 07:06:09;;;;;;;47.70;20.75;;;;;;;5.60;82.56;96742.28;5086511;28;20048;-71
2021/11/15 07:08:36;;;;;;;40.65;19.75;;;;;;;5.60;82.74;96739.56;5086928;28;20044;-72
2021/11/15 07:11:02;;;;;;;40.25;18.77;;;;;;;5.60;82.79;96731.47;5086730;28;20400;-73
2021/11/15 07:13:30;;;;;;;39.42;19.10;;;;;;;5.60;82.89;96734.16;5086279;28;20138;-72
2021/11/15 07:15:57;;;;;;;39.22;20.00;;;;;;;5.63;83.07;96729.00;5086864;28;20051;-72
2021/11/15 07:18:26;;;;;;;45.00;20.40;;;;;;;5.66;82.61;96743.88;5085670;28;20050;-72
2021/11/15 07:20:53;;;;;;;41.97;19.35;;;;;;;5.67;82.75;96740.06;5086827;28;20415;-72
2021/11/15 07:23:19;;;;;;;51.47;23.73;;;;;;;5.66;82.73;96741.16;5085715;28;20048;-72
2021/11/15 07:25:46;;;;;;;46.95;21.55;;;;;;;5.64;83.09;96751.44;5087040;28;20078;-72
2021/11/15 07:28:12;;;;;;;40.03;19.27;;;;;;;5.67;82.75;96761.69;5086105;28;20060;-72
2021/11/15 07:30:40;;;;;;;39.47;18.75;;;;;;;5.62;82.61;96756.31;5086791;28;20139;-72
2021/11/15 07:33:07;;;;;;;35.90;17.95;;;;;;;5.60;82.87;96755.78;5090013;28;20043;-72
2021/11/15 07:35:34;;;;;;;44.00;19.05;;;;;;;5.59;82.72;96754.19;5090260;28;20048;-72
2021/11/15 07:38:01;;;;;;;41.25;18.85;;;;;;;5.57;82.61;96746.31;5091020;28;20048;-72
2021/11/15 07:40:27;;;;;;;40.85;18.90;;;;;;;5.52;82.50;96750.94;5089378;28;20039;-72
2021/11/15 07:42:54;;;;;;;43.67;19.20;;;;;;;5.49;82.73;96750.41;5090346;28;20044;-72
2021/11/15 07:45:21;;;;;;;40.67;18.48;;;;;;;5.46;82.73;96756.34;5087368;28;20045;-71
2021/11/15 07:47:48;;;;;;;37.17;18.90;;;;;;;5.44;82.91;96755.84;5090447;28;20068;-72
2021/11/15 07:50:18;;;;;;;37.92;18.45;;;;;;;5.46;83.00;96760.94;5089452;28;20052;-71
2021/11/15 07:52:45;;;;;;;40.63;19.75;;;;;;;5.49;83.18;96766.63;5089719;28;20778;-72
2021/11/15 07:55:13;;;;;;;42.85;18.50;;;;;;;5.46;82.55;96750.94;5089790;28;20051;-72
2021/11/15 07:57:41;;;;;;;40.00;17.85;;;;;;;5.45;82.64;96754.75;5090542;28;20044;-72
2021/11/15 08:00:11;;;;;;;41.30;19.45;;;;;;;5.49;83.17;96755.81;5090053;28;20048;-72
2021/11/15 08:02:38;;;;;;;38.25;18.55;;;;;;;5.50;83.03;96759.31;5089290;28;20048;-72
2021/11/15 08:05:06;;;;;;;38.38;17.98;;;;;;;5.52;82.58;96759.03;5089988;28;20450;-72
2021/11/15 08:07:33;;;;;;;37.50;17.83;;;;;;;5.48;82.79;96756.91;5089710;28;20063;-72
2021/11/15 08:10:00;;;;;;;48.20;19.77;;;;;;;5.46;82.89;96750.94;5090067;28;20055;-72
2021/11/15 08:12:35;;;;;;;43.63;18.98;;;;;;;5.47;83.21;96749.88;5089141;28;20047;-72
2021/11/15 08:15:04;;;;;;;46.83;19.58;;;;;;;5.48;83.04;96759.59;5096468;28;20528;-72
2021/11/15 08:17:31;;;;;;;44.80;19.73;;;;;;;5.51;83.74;96750.13;5089871;28;20833;-72
2021/11/15 08:19:58;;;;;;;47.17;19.48;;;;;;;5.50;83.57;96757.44;5089433;28;20056;-72
2021/11/15 08:22:26;;;;;;;48.50;20.30;;;;;;;5.50;83.21;96767.44;5089220;28;20593;-73
2021/11/15 08:25:36;;;;;;;48.47;20.30;;;;;;;5.53;83.23;96768.75;5089436;28;20048;-72
2021/11/15 08:28:03;;;;;;;48.30;19.98;;;;;;;5.53;83.05;96764.16;5089423;28;20047;-71
2021/11/15 08:30:29;;;;;;;44.22;19.92;;;;;;;5.58;83.78;96769.53;5089417;28;20047;-72
2021/11/15 08:32:56;;;;;;;47.22;19.83;;;;;;;5.62;83.64;96769.81;5089240;28;20052;-72
2021/11/15 08:35:24;;;;;;;45.05;20.92;;;;;;;5.67;83.01;96773.31;5089288;28;20052;-72
2021/11/15 08:38:16;;;;;;;47.72;20.23;;;;;;;5.65;83.19;96774.69;5088945;28;20044;-72
2021/11/15 08:40:43;;;;;;;43.90;20.05;;;;;;;5.65;82.81;96775.47;5089546;28;20122;-72
2021/11/15 08:43:10;;;;;;;45.28;19.33;;;;;;;5.70;82.90;96782.75;5087643;28;20056;-72
2021/11/15 08:45:38;;;;;;;42.42;19.85;;;;;;;5.71;83.02;96768.97;5077070;28;20053;-72
2021/11/15 08:48:05;;;;;;;53.13;21.77;;;;;;;5.71;82.87;96768.16;5068644;28;20074;-72
2021/11/15 08:50:32;;;;;;;43.30;21.15;;;;;;;5.71;82.57;96770.88;5068882;28;20050;-72
2021/11/15 08:53:00;;;;;;;53.05;22.52;;;;;;;5.72;82.45;96770.56;5069055;28;20052;-72
2021/11/15 08:55:27;;;;;;;49.47;23.13;;;;;;;5.75;82.91;96769.22;5068220;28;20071;-72
2021/11/15 08:57:54;;;;;;;50.22;23.50;;;;;;;5.79;82.65;96770.28;5069618;28;20121;-72
2021/11/15 09:00:21;;;;;;;52.92;24.50;;;;;;;5.79;82.63;96778.38;5067528;28;20048;-72
2021/11/15 09:02:48;;;;;;;52.67;23.33;;;;;;;5.79;82.58;96772.16;5068992;28;20047;-73
2021/11/15 09:05:15;;;;;;;45.17;21.52;;;;;;;5.81;82.89;96778.94;5067822;28;20371;-72
2021/11/15 09:07:41;;;;;;;51.67;22.48;;;;;;;5.77;81.83;96772.47;5068743;28;20052;-73
2021/11/15 09:10:12;;;;;;;46.63;21.20;;;;;;;5.79;82.33;96778.38;5067827;28;20579;-72
2021/11/15 09:12:40;;;;;;;52.05;21.83;;;;;;;5.83;82.24;96770.53;5068356;28;20044;-72
2021/11/15 09:15:10;;;;;;;54.65;22.92;;;;;;;5.86;82.35;96772.69;5075492;28;20495;-72
2021/11/15 09:17:39;;;;;;;47.67;22.02;;;;;;;5.87;82.47;96769.72;5089016;28;20044;-72
2021/11/15 09:20:07;;;;;;;54.30;23.83;;;;;;;5.91;82.34;96778.91;5089172;28;20059;-72
2021/11/15 09:22:33;;;;;;;58.05;22.52;;;;;;;5.91;81.99;96773.50;5087957;28;20043;-72
2021/11/15 09:25:00;;;;;;;51.63;21.73;;;;;;;5.90;81.78;96774.56;5088889;28;20052;-72
2021/11/15 09:27:28;;;;;;;49.45;22.55;;;;;;;5.93;82.01;96774.03;5087959;28;20699;-72
2021/11/15 09:29:55;;;;;;;57.47;23.33;;;;;;;5.97;81.83;96777.00;5088830;28;20058;-72
2021/11/15 09:32:23;;;;;;;52.80;22.38;;;;;;;5.99;81.70;96758.59;5087421;28;20555;-72
2021/11/15 09:34:50;;;;;;;46.33;22.08;;;;;;;5.97;81.70;96767.00;5088579;28;20044;-73
2021/11/15 09:37:19;;;;;;;52.15;22.45;;;;;;;6.00;81.84;96765.63;5087914;28;20503;-72
2021/11/15 09:39:47;;;;;;;48.05;22.00;;;;;;;6.00;82.04;96769.16;5088076;28;20052;-72
2021/11/15 09:42:15;;;;;;;47.15;21.17;;;;;;;5.99;81.52;96764.81;5087542;28;20054;-72
2021/11/15 09:44:44;;;;;;;48.38;20.38;;;;;;;5.95;80.99;96780.00;5082857;28;20045;-72
2021/11/15 09:47:12;;;;;;;50.78;21.23;;;;;;;5.93;81.18;96773.22;5067937;28;20040;-72
2021/11/15 09:49:39;;;;;;;47.75;21.30;;;;;;;5.93;81.59;96773.22;5067485;28;20050;-72
2021/11/15 09:52:08;;;;;;;48.05;21.05;;;;;;;5.95;81.64;96765.63;5067610;28;20044;-72
2021/11/15 09:54:35;;;;;;;46.17;20.58;;;;;;;5.98;81.48;96773.19;5067478;28;20040;-72
2021/11/15 09:57:01;;;;;;;47.08;20.25;;;;;;;6.01;81.80;96770.75;5067554;28;20048;-70
2021/11/15 09:59:29;;;;;;;46.97;19.83;;;;;;;6.03;81.77;96767.78;5067778;28;20048;-72
2021/11/15 10:01:59;;;;;;;46.83;20.52;;;;;;;6.07;81.66;96770.75;5067314;28;20052;-72
2021/11/15 10:04:27;;;;;;;46.08;21.25;;;;;;;6.09;81.71;96763.13;5067515;28;20044;-72
2021/11/15 10:06:57;;;;;;;53.25;20.80;;;;;;;6.08;81.24;96761.53;5067099;28;20052;-73
2021/11/15 10:09:27;;;;;;;50.10;21.88;;;;;;;6.09;81.21;96763.94;5067680;28;20048;-73
2021/11/15 10:11:54;;;;;;;49.75;21.98;;;;;;;6.09;80.86;96763.13;5066822;28;20050;-72
2021/11/15 10:14:21;;;;;;;49.38;21.80;;;;;;;6.09;81.14;96758.53;5068456;28;20070;-72
2021/11/15 10:16:56;;;;;;;52.03;22.35;;;;;;;6.09;81.00;96763.13;5087631;28;20413;-73
2021/11/15 10:19:24;;;;;;;51.15;21.83;;;;;;;6.07;81.00;96765.34;5087152;28;20117;-73
2021/11/15 10:21:54;;;;;;;50.85;23.20;;;;;;;6.08;80.84;96761.53;5087306;28;20055;-72
2021/11/15 10:24:23;;;;;;;53.88;22.85;;;;;;;6.10;80.75;96757.44;5086659;28;20047;-72
2021/11/15 10:26:54;;;;;;;51.63;22.13;;;;;;;6.10;80.88;96760.16;5087736;28;20483;-72
2021/11/15 10:29:24;;;;;;;46.88;21.45;;;;;;;6.08;80.51;96756.13;5086600;28;20662;-72
2021/11/15 10:31:53;;;;;;;49.15;22.02;;;;;;;6.09;80.94;96760.44;5087743;28;20052;-72
2021/11/15 10:34:27;;;;;;;47.10;20.80;;;;;;;6.15;81.22;96756.63;5086698;28;20082;-72
2021/11/15 10:37:00;;;;;;;50.28;20.67;;;;;;;6.17;80.62;96755.25;5087651;28;20052;-72
2021/11/15 10:39:31;;;;;;;45.35;21.35;;;;;;;6.16;80.34;96750.94;5086983;28;20054;-72
2021/11/15 10:42:07;;;;;;;46.13;20.98;;;;;;;6.16;80.49;96753.66;5086743;28;20054;-72
2021/11/15 10:44:35;;;;;;;42.10;18.73;;;;;;;6.13;79.92;96748.78;5084052;28;20087;-72
2021/11/15 10:47:02;;;;;;;43.20;19.00;;;;;;;6.14;79.80;96749.59;5066371;28;20053;-71
2021/11/15 10:49:31;;;;;;;41.03;19.63;;;;;;;6.16;79.93;96752.81;5067894;28;20044;-72
2021/11/15 10:52:01;;;;;;;45.13;19.80;;;;;;;6.19;80.04;96742.25;5066460;28;20045;-72
2021/11/15 10:54:58;;;;;;;45.25;20.17;;;;;;;6.16;79.59;96753.66;5066686;28;20051;-72
2021/11/15 10:57:38;;;;;;;38.45;18.42;;;;;;;6.19;79.95;96742.25;5066635;28;20540;-72
2021/11/15 11:00:25;;;;;;;39.88;19.17;;;;;;;6.21;80.07;96744.66;5066125;28;20056;-71
2021/11/15 11:02:54;;;;;;;51.10;22.10;;;;;;;6.19;80.39;96730.63;5067307;28;20083;-72
2021/11/15 11:05:24;;;;;;;53.13;22.98;;;;;;;6.19;80.71;96725.22;5066256;28;20053;-72
2021/11/15 11:08:03;;;;;;;45.70;22.52;;;;;;;6.28;80.63;96723.56;5071203;28;20419;-73
2021/11/15 11:10:31;;;;;;;49.70;22.38;;;;;;;6.32;80.81;96724.59;5070407;28;20557;-72
2021/11/15 11:13:00;;;;;;;45.38;21.60;;;;;;;6.38;80.90;96709.97;5070554;28;20051;-71
2021/11/15 11:15:34;;;;;;;42.47;20.85;;;;;;;6.43;80.53;96717.22;5080758;28;20581;-72
2021/11/15 11:18:14;;;;;;;47.53;21.58;;;;;;;6.43;80.31;96712.63;5090878;28;20506;-72
2021/11/15 11:26:57;;;;;;;46.08;21.40;;;;;;;6.52;80.05;96697.41;5110510;28;20048;-72
2021/11/15 11:29:26;;;;;;;45.00;20.48;;;;;;;6.56;80.12;96702.22;5110934;27;20050;-72
2021/11/15 11:31:57;;;;;;;47.78;21.38;;;;;;;6.61;79.83;96702.19;5110401;28;20055;-72
2021/11/15 11:34:24;;;;;;;44.17;20.85;;;;;;;6.60;79.98;96693.28;5110817;27;20449;-72